Arari, Brazil
Current Conditions -  °F | °C
As of 3:00 PM on Saturday 20 Dec 2014 (Local Time) from SBSL Reporting Station
Few Clouds Few Clouds  
Wind Chill: 90°   Ceiling: Unl
Heat Index: 92°   Visibility: 6mi
Dew Point: 66°   Wind: 25mph
Humidity: 46%   Direction: 60°ENE
Pressure: 29.8"   Gusts: NA
Location:  3.45°S, 44.78°W
Report Text: SBSL 201800Z 06022KT 9999 FEW020 32/19 Q1009
Loading
Personal Weather Stations






























Interactive Weather Map New forecast layout! Learn more

10-Day Weather Forecast

Advertisements
Track Severe Weather on mobile